Time;durP1;ratioP1;P1;durP2;ratioP2;P2;SDS_P1;SDS_P2;PMS_P1;PMS_P2;Temp;Humidity;BMP_temperature;BMP_pressure;BME280_temperature;BME280_humidity;BME280_pressure;Samples;Min_cycle;Max_cycle;Signal;HPM_P1;HPM_P2
2021/01/31 00:01:58;;;;;;;4.37;3.73;;;1.90;99.90;;;;;;5038667;28;20263;-82
2021/01/31 00:04:23;;;;;;;6.93;5.30;;;1.90;99.90;;;;;;5037821;28;20169;-82
2021/01/31 00:06:49;;;;;;;6.23;4.70;;;1.60;99.90;;;;;;5039040;28;20165;-82
2021/01/31 00:09:15;;;;;;;6.33;4.10;;;1.80;99.90;;;;;;5038994;28;20279;-83
2021/01/31 00:11:41;;;;;;;4.10;3.37;;;1.50;99.90;;;;;;5038615;28;20168;-82
2021/01/31 00:14:06;;;;;;;7.63;5.27;;;1.40;99.90;;;;;;5038964;28;20165;-83
2021/01/31 00:16:32;;;;;;;4.40;4.00;;;1.40;99.90;;;;;;5048543;28;20165;-83
2021/01/31 00:18:58;;;;;;;8.63;4.20;;;1.40;99.90;;;;;;5050389;28;20232;-83
2021/01/31 00:21:24;;;;;;;5.13;4.40;;;1.60;99.90;;;;;;5067092;28;20498;-83
2021/01/31 00:23:49;;;;;;;5.37;4.87;;;1.70;99.90;;;;;;5075904;28;20171;-82
2021/01/31 00:26:15;;;;;;;4.60;4.20;;;1.60;99.90;;;;;;5077591;28;20175;-83
2021/01/31 00:28:41;;;;;;;8.27;5.00;;;1.60;99.90;;;;;;5077433;28;20180;-83
2021/01/31 00:31:06;;;;;;;6.77;5.83;;;1.50;99.90;;;;;;5070775;28;20180;-84
2021/01/31 00:33:32;;;;;;;6.63;6.00;;;1.70;99.90;;;;;;5061246;28;20206;-83
2021/01/31 00:35:58;;;;;;;5.60;4.30;;;1.60;99.90;;;;;;5058648;28;20168;-82
2021/01/31 00:38:25;;;;;;;5.80;4.63;;;1.60;99.90;;;;;;5058591;28;20390;-82
2021/01/31 00:40:51;;;;;;;5.53;5.03;;;1.80;99.90;;;;;;5047579;28;20168;-83
2021/01/31 00:43:18;;;;;;;7.03;5.40;;;1.80;99.90;;;;;;5048067;28;20398;-80
2021/01/31 00:45:44;;;;;;;7.27;4.90;;;2.00;99.90;;;;;;5056866;28;20400;-81
2021/01/31 00:48:11;;;;;;;7.63;5.03;;;2.10;99.90;;;;;;5055889;28;20455;-82
2021/01/31 00:50:39;;;;;;;4.23;3.80;;;1.90;99.90;;;;;;5048697;28;20456;-83
2021/01/31 00:53:07;;;;;;;10.77;6.23;;;2.00;99.90;;;;;;5060643;28;20390;-83
2021/01/31 00:55:33;;;;;;;5.37;4.87;;;2.10;99.90;;;;;;5058005;28;20398;-82
2021/01/31 00:57:59;;;;;;;8.07;4.30;;;2.10;99.90;;;;;;5057654;28;20454;-82
2021/01/31 01:00:33;;;;;;;5.93;5.43;;;2.10;99.90;;;;;;5049215;28;20169;-82
2021/01/31 01:02:59;;;;;;;8.63;5.27;;;2.00;99.90;;;;;;5038173;28;20613;-82
2021/01/31 01:05:27;;;;;;;5.67;4.80;;;2.00;99.90;;;;;;5038067;28;20406;-82
2021/01/31 01:07:54;;;;;;;7.80;5.57;;;1.90;99.90;;;;;;5037786;28;20431;-82
2021/01/31 01:10:25;;;;;;;7.07;4.50;;;1.80;99.90;;;;;;5043762;28;20434;-82
2021/01/31 01:12:51;;;;;;;6.10;4.90;;;1.80;99.90;;;;;;5058367;28;20503;-83
2021/01/31 01:15:20;;;;;;;6.90;5.40;;;1.90;99.90;;;;;;5058645;28;20395;-83
2021/01/31 01:17:46;;;;;;;5.07;4.50;;;1.70;99.90;;;;;;5058284;28;20394;-83
2021/01/31 01:20:13;;;;;;;7.30;5.20;;;1.70;99.90;;;;;;5054995;28;20461;-84
2021/01/31 01:22:39;;;;;;;6.37;5.27;;;1.80;99.90;;;;;;5054291;28;20176;-83
2021/01/31 01:25:06;;;;;;;7.10;5.10;;;2.00;99.90;;;;;;5047681;28;20415;-81
2021/01/31 01:27:32;;;;;;;8.30;5.10;;;2.00;99.90;;;;;;5038677;28;20283;-83
2021/01/31 01:29:59;;;;;;;9.90;4.30;;;1.80;99.90;;;;;;5037314;28;20485;-83
2021/01/31 01:32:25;;;;;;;6.20;5.60;;;1.70;99.90;;;;;;5038284;28;20415;-83
2021/01/31 01:34:51;;;;;;;13.10;5.60;;;1.80;99.90;;;;;;5056184;28;20514;-81
2021/01/31 01:37:18;;;;;;;6.07;5.17;;;1.70;99.90;;;;;;5057723;28;20436;-83
2021/01/31 01:39:44;;;;;;;7.20;5.17;;;1.50;99.90;;;;;;5058106;28;20402;-82
2021/01/31 01:42:11;;;;;;;6.10;5.20;;;1.20;99.90;;;;;;5056816;28;20800;-82
2021/01/31 01:44:37;;;;;;;6.57;4.87;;;1.30;99.90;;;;;;5057555;28;20474;-82
2021/01/31 01:47:08;;;;;;;7.83;5.00;;;1.50;99.90;;;;;;5057578;28;20390;-82
2021/01/31 01:49:38;;;;;;;5.77;4.53;;;1.70;99.90;;;;;;5055475;28;20458;-82
2021/01/31 01:52:15;;;;;;;9.60;5.73;;;1.80;99.90;;;;;;5039169;28;20589;-82
2021/01/31 01:54:45;;;;;;;8.93;6.10;;;2.10;99.90;;;;;;5037610;28;20402;-82
2021/01/31 01:57:15;;;;;;;6.10;5.50;;;1.90;99.90;;;;;;5037289;28;20431;-82
2021/01/31 01:59:42;;;;;;;7.57;6.00;;;2.00;99.90;;;;;;5056910;28;20399;-80
2021/01/31 02:02:20;;;;;;;7.20;5.03;;;2.00;99.90;;;;;;5054052;28;20426;-82
2021/01/31 02:04:46;;;;;;;6.60;5.93;;;2.20;99.90;;;;;;5041646;28;20441;-82
2021/01/31 02:07:12;;;;;;;6.00;5.40;;;2.10;99.90;;;;;;5040912;28;20490;-82
2021/01/31 02:09:41;;;;;;;4.93;3.90;;;2.20;99.90;;;;;;5041760;28;20392;-82
2021/01/31 02:12:08;;;;;;;4.93;4.43;;;2.30;99.90;;;;;;5057717;28;20480;-82
2021/01/31 02:14:36;;;;;;;7.93;5.73;;;2.20;99.90;;;;;;5061544;28;20402;-82
2021/01/31 02:17:27;;;;;;;7.07;5.53;;;2.30;99.90;;;;;;5066806;28;20567;-82
2021/01/31 02:20:25;;;;;;;7.80;5.20;;;2.30;99.90;;;;;;5065575;28;20480;-82
2021/01/31 02:23:28;;;;;;;7.27;5.33;;;2.30;99.90;;;;;;5020935;28;20371;-82
2021/01/31 02:26:07;;;;;;;9.43;4.80;;;2.20;99.90;;;;;;5020431;28;20931;-82
2021/01/31 02:28:54;;;;;;;10.67;7.27;;;2.20;99.90;;;;;;5020427;28;20506;-82
2021/01/31 02:31:46;;;;;;;9.23;5.73;;;2.20;99.90;;;;;;5029639;28;20545;-81
2021/01/31 02:34:23;;;;;;;7.20;4.40;;;2.10;99.90;;;;;;5040214;28;20461;-82
2021/01/31 02:37:05;;;;;;;7.00;5.13;;;2.20;99.90;;;;;;5040305;28;20395;-82
2021/01/31 02:39:46;;;;;;;6.73;5.67;;;2.00;99.90;;;;;;5040324;28;20398;-82
2021/01/31 02:42:40;;;;;;;8.17;4.67;;;2.00;99.90;;;;;;5040224;28;20411;-82
2021/01/31 02:45:26;;;;;;;10.13;6.37;;;2.00;99.90;;;;;;5040008;28;20944;-82
2021/01/31 02:48:22;;;;;;;11.13;6.07;;;2.20;99.90;;;;;;5040132;28;20533;-81
2021/01/31 02:50:52;;;;;;;7.57;5.30;;;2.20;99.90;;;;;;5039785;28;20419;-82
2021/01/31 02:53:33;;;;;;;6.30;5.30;;;2.20;99.90;;;;;;5040015;28;20415;-82
2021/01/31 02:56:05;;;;;;;12.50;7.57;;;2.20;99.90;;;;;;5040288;28;20407;-82
2021/01/31 02:58:37;;;;;;;5.80;4.63;;;2.10;99.90;;;;;;5039794;28;20438;-82
2021/01/31 03:01:17;;;;;;;9.33;6.07;;;2.10;99.90;;;;;;5039924;28;20411;-82
2021/01/31 03:04:06;;;;;;;6.00;4.57;;;2.20;99.90;;;;;;5059157;28;20768;-82
2021/01/31 03:06:37;;;;;;;6.87;5.57;;;1.90;99.90;;;;;;5060197;28;20421;-82
2021/01/31 03:09:33;;;;;;;7.20;5.73;;;2.10;99.90;;;;;;5068225;28;20453;-82
2021/01/31 03:12:03;;;;;;;6.07;5.50;;;2.10;99.90;;;;;;5062664;28;20439;-82
2021/01/31 03:14:37;;;;;;;7.80;6.00;;;1.80;99.90;;;;;;5048464;28;20392;-82
2021/01/31 03:17:21;;;;;;;5.90;4.13;;;1.80;99.90;;;;;;5047886;28;20388;-82
2021/01/31 03:19:56;;;;;;;6.37;5.17;;;2.00;99.90;;;;;;5048340;28;21006;-82
2021/01/31 03:22:27;;;;;;;8.47;6.13;;;2.10;99.90;;;;;;5055039;28;20467;-82
2021/01/31 03:25:00;;;;;;;8.67;4.67;;;2.20;99.90;;;;;;5065747;28;20441;-82
2021/01/31 03:27:34;;;;;;;6.60;5.87;;;2.30;99.90;;;;;;5063031;28;20505;-82
2021/01/31 03:29:59;;;;;;;5.37;4.87;;;2.30;99.90;;;;;;5063589;28;20390;-82
2021/01/31 03:32:30;;;;;;;13.73;6.90;;;2.20;99.90;;;;;;5064897;28;20399;-82
2021/01/31 03:35:01;;;;;;;6.80;6.10;;;2.30;99.90;;;;;;5062471;28;20164;-82
2021/01/31 03:37:37;;;;;;;4.10;3.80;;;2.20;99.90;;;;;;5065237;28;20405;-82
2021/01/31 03:40:06;;;;;;;7.10;5.53;;;2.10;99.90;;;;;;5059677;28;20397;-82
2021/01/31 03:42:32;;;;;;;7.27;5.57;;;2.30;99.90;;;;;;5050975;28;20450;-82
2021/01/31 03:45:03;;;;;;;8.30;5.23;;;2.20;99.90;;;;;;5039442;28;20367;-82
2021/01/31 03:47:53;;;;;;;8.70;5.80;;;1.80;99.90;;;;;;5039057;28;20149;-82
2021/01/31 03:50:18;;;;;;;11.50;4.17;;;1.80;99.90;;;;;;5038659;28;20458;-82
2021/01/31 03:52:45;;;;;;;8.80;5.60;;;1.90;99.90;;;;;;5048193;28;20407;-82
2021/01/31 03:55:11;;;;;;;6.93;4.73;;;2.00;99.90;;;;;;5057939;28;20239;-82
2021/01/31 03:57:46;;;;;;;7.80;4.70;;;2.00;99.90;;;;;;5058665;28;20390;-82
2021/01/31 04:00:19;;;;;;;6.60;5.00;;;2.10;99.90;;;;;;5059504;28;20484;-82
2021/01/31 04:02:56;;;;;;;7.77;5.40;;;2.00;99.90;;;;;;5049549;28;20467;-81
2021/01/31 04:05:25;;;;;;;9.80;6.03;;;1.50;99.90;;;;;;5038078;28;20395;-82
2021/01/31 04:07:54;;;;;;;8.70;5.97;;;1.80;99.90;;;;;;5038392;28;20481;-82
2021/01/31 04:10:21;;;;;;;7.10;5.50;;;1.90;99.90;;;;;;5038661;28;20388;-81
2021/01/31 04:12:52;;;;;;;9.00;5.57;;;1.90;99.90;;;;;;5038547;28;20411;-81
2021/01/31 04:15:31;;;;;;;5.60;5.00;;;1.90;99.90;;;;;;5038436;28;20418;-81
2021/01/31 04:17:56;;;;;;;10.87;6.40;;;1.70;99.90;;;;;;5038196;28;20753;-81
2021/01/31 04:20:22;;;;;;;5.73;5.13;;;1.80;99.90;;;;;;5037881;28;20511;-81
2021/01/31 04:22:48;;;;;;;5.43;4.10;;;2.00;99.90;;;;;;5046813;28;20632;-81
2021/01/31 04:25:15;;;;;;;5.73;4.27;;;1.90;99.90;;;;;;5057907;28;20271;-81
2021/01/31 04:27:41;;;;;;;6.03;5.00;;;1.90;99.90;;;;;;5058441;28;20199;-81
2021/01/31 04:30:08;;;;;;;5.80;4.60;;;2.10;99.90;;;;;;5058370;28;20390;-81
2021/01/31 04:32:36;;;;;;;11.37;5.33;;;2.10;99.90;;;;;;5056135;28;20399;-81
2021/01/31 04:35:03;;;;;;;7.87;4.80;;;1.90;99.90;;;;;;5058046;28;20367;-82
2021/01/31 04:37:29;;;;;;;6.37;4.57;;;1.80;99.90;;;;;;5058838;28;20732;-81
2021/01/31 04:39:55;;;;;;;6.20;5.03;;;1.60;99.90;;;;;;5058377;28;20425;-81
2021/01/31 04:42:21;;;;;;;5.57;4.00;;;1.60;99.90;;;;;;5057480;28;20182;-81
2021/01/31 04:44:49;;;;;;;12.27;5.87;;;1.40;99.90;;;;;;5058453;28;20243;-81
2021/01/31 04:47:30;;;;;;;11.20;6.83;;;1.60;99.90;;;;;;5038790;28;20441;-83
2021/01/31 04:50:24;;;;;;;7.10;5.50;;;1.70;99.90;;;;;;5037990;28;20453;-83
2021/01/31 04:53:12;;;;;;;6.80;5.23;;;1.60;99.90;;;;;;5037319;28;20502;-83
2021/01/31 04:56:05;;;;;;;7.60;5.10;;;1.60;99.90;;;;;;5037542;28;20387;-82
2021/01/31 04:58:50;;;;;;;6.00;4.30;;;1.90;99.90;;;;;;5037934;28;20396;-83
2021/01/31 05:01:29;;;;;;;10.57;5.27;;;1.90;99.90;;;;;;5037961;28;20753;-83
2021/01/31 05:04:01;;;;;;;8.50;5.47;;;2.00;99.90;;;;;;5037334;28;20403;-83
2021/01/31 05:06:34;;;;;;;7.33;6.13;;;2.00;99.90;;;;;;5039109;28;20880;-83
2021/01/31 05:09:02;;;;;;;7.63;6.13;;;2.00;99.90;;;;;;5056935;28;20454;-83
2021/01/31 05:11:35;;;;;;;5.90;4.87;;;2.00;99.90;;;;;;5046603;28;20507;-82
2021/01/31 05:14:25;;;;;;;9.90;4.90;;;2.20;99.90;;;;;;5054275;28;20895;-82
2021/01/31 05:16:51;;;;;;;9.47;6.00;;;2.00;99.90;;;;;;5058556;28;20478;-82
2021/01/31 05:19:21;;;;;;;11.00;6.83;;;2.00;99.90;;;;;;5057199;28;21053;-82
2021/01/31 05:21:46;;;;;;;10.60;6.07;;;2.10;99.90;;;;;;5059458;28;20519;-82
2021/01/31 05:24:19;;;;;;;12.73;6.30;;;2.10;99.90;;;;;;5040283;28;20411;-82
2021/01/31 05:26:56;;;;;;;8.10;5.83;;;2.10;99.90;;;;;;5040611;28;20169;-82
2021/01/31 05:29:27;;;;;;;11.27;5.80;;;2.10;99.90;;;;;;5040882;28;20432;-82
2021/01/31 05:32:01;;;;;;;9.90;5.90;;;2.10;99.90;;;;;;5047645;28;20406;-82
2021/01/31 05:34:34;;;;;;;7.87;4.33;;;2.00;99.90;;;;;;5034257;28;20406;-82
2021/01/31 05:37:04;;;;;;;6.40;5.77;;;1.80;99.90;;;;;;5041877;28;20410;-82
2021/01/31 05:39:56;;;;;;;6.17;5.00;;;1.90;99.90;;;;;;5041701;28;20399;-82
2021/01/31 05:42:26;;;;;;;9.87;5.33;;;1.80;99.90;;;;;;5044803;28;20413;-82
2021/01/31 05:45:14;;;;;;;9.20;6.70;;;1.30;99.90;;;;;;5062215;28;20786;-82
2021/01/31 05:47:42;;;;;;;9.10;6.60;;;1.60;99.90;;;;;;5061246;28;20434;-82
2021/01/31 05:50:31;;;;;;;8.43;5.10;;;1.60;99.90;;;;;;5061335;28;20434;-82
2021/01/31 05:52:58;;;;;;;5.50;4.63;;;1.40;99.90;;;;;;5052853;28;20406;-82
2021/01/31 05:55:32;;;;;;;7.73;5.47;;;1.50;99.90;;;;;;5041466;28;20387;-82
2021/01/31 05:58:16;;;;;;;11.93;6.80;;;1.60;99.90;;;;;;5041330;28;20399;-82
2021/01/31 06:00:43;;;;;;;12.30;5.50;;;1.10;99.90;;;;;;5041555;28;20391;-82
2021/01/31 06:03:11;;;;;;;8.63;6.30;;;1.00;99.90;;;;;;5041029;28;20763;-82
2021/01/31 06:05:37;;;;;;;5.50;4.67;;;1.40;99.90;;;;;;5041568;28;20482;-82
2021/01/31 06:08:24;;;;;;;10.53;6.57;;;1.30;99.90;;;;;;5041521;28;20442;-82
2021/01/31 06:11:05;;;;;;;7.80;4.70;;;1.30;99.90;;;;;;5041707;28;20411;-82
2021/01/31 06:13:34;;;;;;;11.03;5.60;;;1.50;99.90;;;;;;5053175;28;20478;-83
2021/01/31 06:16:05;;;;;;;8.00;5.70;;;1.70;99.90;;;;;;5071044;28;20454;-83
2021/01/31 06:19:07;;;;;;;6.47;5.50;;;1.80;99.90;;;;;;5076561;28;20450;-80
2021/01/31 06:21:38;;;;;;;11.30;6.23;;;1.40;99.90;;;;;;5076878;28;20426;-83
2021/01/31 06:24:18;;;;;;;8.60;5.70;;;1.30;99.90;;;;;;5054233;28;20415;-82
2021/01/31 06:26:43;;;;;;;9.73;6.20;;;1.00;99.90;;;;;;5045700;28;20395;-82
2021/01/31 06:29:20;;;;;;;7.83;4.80;;;0.90;99.90;;;;;;5046139;28;20466;-82
2021/01/31 06:31:53;;;;;;;5.83;5.17;;;1.10;99.90;;;;;;5046753;28;20191;-83
2021/01/31 06:34:19;;;;;;;6.90;5.10;;;1.10;99.90;;;;;;5047008;28;20396;-83
2021/01/31 06:36:59;;;;;;;7.97;5.97;;;1.30;99.90;;;;;;5047313;28;20370;-82
2021/01/31 06:39:47;;;;;;;7.47;5.60;;;1.40;99.90;;;;;;5046614;28;20403;-82
2021/01/31 06:42:32;;;;;;;8.00;5.50;;;1.60;99.90;;;;;;5046743;28;20423;-82
2021/01/31 06:45:18;;;;;;;8.13;5.17;;;1.40;99.90;;;;;;5046511;28;20465;-82
2021/01/31 06:48:04;;;;;;;6.13;4.47;;;1.10;99.90;;;;;;5048573;28;20490;-82
2021/01/31 06:50:46;;;;;;;6.67;5.33;;;1.20;99.90;;;;;;5050377;28;20380;-82
2021/01/31 06:53:31;;;;;;;7.03;6.03;;;1.40;99.90;;;;;;5055722;28;20448;-83
2021/01/31 06:56:32;;;;;;;6.30;5.03;;;1.20;99.90;;;;;;5066138;28;20427;-83
2021/01/31 06:59:22;;;;;;;7.20;5.80;;;1.20;99.90;;;;;;5060339;28;20380;-83
2021/01/31 07:02:09;;;;;;;8.97;6.37;;;1.30;99.90;;;;;;5060404;28;20398;-82
2021/01/31 07:04:48;;;;;;;8.00;4.50;;;1.30;99.90;;;;;;5059373;28;20406;-82
2021/01/31 07:07:48;;;;;;;7.63;5.43;;;1.30;99.90;;;;;;5060187;28;20385;-82
2021/01/31 07:10:49;;;;;;;6.57;5.40;;;1.30;99.90;;;;;;5059674;28;20387;-82
2021/01/31 07:13:40;;;;;;;9.57;7.73;;;0.90;99.90;;;;;;5051267;28;20400;-83
2021/01/31 07:16:27;;;;;;;8.73;5.47;;;1.10;99.90;;;;;;5039661;28;20363;-83
2021/01/31 07:19:08;;;;;;;10.93;6.60;;;1.10;99.90;;;;;;5041029;28;20462;-82
2021/01/31 07:21:42;;;;;;;9.60;5.43;;;1.10;99.90;;;;;;5040230;28;20406;-82
2021/01/31 07:24:15;;;;;;;6.63;5.97;;;1.20;99.90;;;;;;5056613;28;20457;-82
2021/01/31 07:26:50;;;;;;;8.17;6.13;;;1.00;99.90;;;;;;5060110;28;20387;-82
2021/01/31 07:29:24;;;;;;;9.87;7.17;;;0.90;99.90;;;;;;5059304;28;20446;-83
2021/01/31 07:31:50;;;;;;;5.10;4.47;;;1.10;99.90;;;;;;5060441;28;20493;-83
2021/01/31 07:34:32;;;;;;;12.23;7.57;;;0.90;99.90;;;;;;5046373;28;20516;-83
2021/01/31 07:37:16;;;;;;;10.17;4.57;;;0.80;99.90;;;;;;5053677;28;20398;-82
2021/01/31 07:39:49;;;;;;;8.97;5.60;;;0.90;99.90;;;;;;5057057;28;20370;-82
2021/01/31 07:42:17;;;;;;;7.40;5.83;;;0.80;99.90;;;;;;5057952;28;20750;-82
2021/01/31 07:44:45;;;;;;;9.17;6.07;;;0.80;99.90;;;;;;5063019;28;20414;-82
2021/01/31 07:47:11;;;;;;;9.47;5.90;;;1.00;99.90;;;;;;5068024;28;20405;-83
2021/01/31 07:50:11;;;;;;;13.47;5.33;;;0.90;99.90;;;;;;5066658;28;20445;-83
2021/01/31 07:52:52;;;;;;;13.03;8.33;;;1.20;99.90;;;;;;5058034;28;20415;-82
2021/01/31 07:55:28;;;;;;;8.27;6.10;;;1.40;99.90;;;;;;5057360;28;20401;-83
2021/01/31 07:58:32;;;;;;;7.90;5.77;;;1.40;99.90;;;;;;5058309;28;20429;-83
2021/01/31 08:00:58;;;;;;;10.07;6.13;;;1.30;99.90;;;;;;5058567;28;20744;-82
2021/01/31 08:03:32;;;;;;;5.00;4.50;;;1.30;99.90;;;;;;5058665;28;20417;-83
2021/01/31 08:06:07;;;;;;;13.60;7.03;;;1.20;99.90;;;;;;5057965;28;20167;-82
2021/01/31 08:08:44;;;;;;;6.70;5.80;;;1.30;99.90;;;;;;5056410;28;20441;-82
2021/01/31 08:11:31;;;;;;;9.27;4.80;;;1.40;99.90;;;;;;5057809;28;20399;-82
2021/01/31 08:13:57;;;;;;;9.23;6.20;;;1.30;99.90;;;;;;5058399;28;20472;-83
2021/01/31 08:16:39;;;;;;;10.70;6.17;;;1.50;99.90;;;;;;5068643;28;20406;-82
2021/01/31 08:19:27;;;;;;;11.30;6.73;;;1.60;99.90;;;;;;5075509;28;20211;-83
2021/01/31 08:22:04;;;;;;;8.20;5.60;;;1.60;99.90;;;;;;5059261;28;20458;-83
2021/01/31 08:25:04;;;;;;;10.73;6.47;;;1.60;99.90;;;;;;5056521;28;20422;-83
2021/01/31 08:28:09;;;;;;;14.17;6.50;;;1.20;99.90;;;;;;5042622;28;20395;-82
2021/01/31 08:30:39;;;;;;;6.67;5.00;;;1.30;99.90;;;;;;5054752;28;20426;-81
2021/01/31 08:33:22;;;;;;;12.80;6.60;;;1.20;99.90;;;;;;5017951;28;20423;-83
2021/01/31 08:36:08;;;;;;;11.30;6.43;;;1.20;99.90;;;;;;5035711;28;20399;-82
2021/01/31 08:38:45;;;;;;;11.70;5.93;;;1.00;99.90;;;;;;5036516;28;20434;-83
2021/01/31 08:41:33;;;;;;;6.70;6.00;;;0.90;99.90;;;;;;5036018;28;20835;-83
2021/01/31 08:44:20;;;;;;;8.70;5.97;;;1.00;99.90;;;;;;5045176;28;20763;-83
2021/01/31 08:47:00;;;;;;;11.23;5.20;;;1.00;99.90;;;;;;5042114;28;20402;-82
2021/01/31 08:49:26;;;;;;;13.00;6.17;;;1.20;99.90;;;;;;5056025;28;20458;-82
2021/01/31 08:51:58;;;;;;;12.00;8.53;;;1.20;99.90;;;;;;5055881;28;20401;-82
2021/01/31 08:54:25;;;;;;;9.93;6.77;;;1.00;99.90;;;;;;5055400;28;20410;-83
2021/01/31 08:56:58;;;;;;;13.87;6.27;;;1.00;99.90;;;;;;5057537;28;20398;-82
2021/01/31 08:59:31;;;;;;;6.37;5.73;;;1.20;99.90;;;;;;5058682;28;20408;-82
2021/01/31 09:02:19;;;;;;;9.03;5.80;;;1.00;99.90;;;;;;5057929;28;20778;-82
2021/01/31 09:04:52;;;;;;;11.93;7.30;;;1.20;99.90;;;;;;5057748;28;20482;-82
2021/01/31 09:07:26;;;;;;;6.03;5.23;;;1.40;99.90;;;;;;5058275;28;20409;-82
2021/01/31 09:10:12;;;;;;;7.27;5.50;;;1.60;99.90;;;;;;5061964;28;20501;-82
2021/01/31 09:12:38;;;;;;;5.80;5.30;;;1.30;99.90;;;;;;5062585;28;20529;-83
2021/01/31 09:15:08;;;;;;;6.00;5.13;;;1.70;99.90;;;;;;5061711;28;20406;-82
2021/01/31 09:17:34;;;;;;;6.40;5.03;;;1.60;99.90;;;;;;5062522;28;20160;-82
2021/01/31 09:20:26;;;;;;;8.40;6.40;;;1.70;99.90;;;;;;5058723;28;20461;-82
2021/01/31 09:22:55;;;;;;;11.13;7.00;;;1.50;99.90;;;;;;5059817;28;20243;-82
2021/01/31 09:25:23;;;;;;;11.83;6.43;;;1.60;99.90;;;;;;5003722;28;20368;-82
2021/01/31 09:28:02;;;;;;;9.27;6.80;;;1.80;99.90;;;;;;5019890;28;20465;-82
2021/01/31 09:30:30;;;;;;;10.97;5.90;;;3.30;99.90;;;;;;5020805;28;20412;-82
2021/01/31 09:33:02;;;;;;;8.37;6.03;;;4.60;99.90;;;;;;5020332;28;20845;-82
2021/01/31 09:35:32;;;;;;;11.50;6.87;;;4.10;99.90;;;;;;5038832;28;20502;-83
2021/01/31 09:38:28;;;;;;;8.83;6.20;;;3.50;99.90;;;;;;5058605;28;20508;-82
2021/01/31 09:40:57;;;;;;;10.57;7.83;;;4.20;99.90;;;;;;5059695;28;20417;-82
2021/01/31 09:43:27;;;;;;;9.87;7.00;;;3.40;99.90;;;;;;5021518;28;20503;-82
2021/01/31 09:45:56;;;;;;;8.17;5.47;;;2.90;99.90;;;;;;5040083;28;20447;-83
2021/01/31 09:48:26;;;;;;;7.60;6.00;;;2.90;99.90;;;;;;5039772;28;20602;-83
2021/01/31 09:50:58;;;;;;;6.50;5.50;;;2.50;99.90;;;;;;5040024;28;20430;-82
2021/01/31 09:53:31;;;;;;;7.30;6.37;;;2.20;99.90;;;;;;5036462;28;20394;-81
2021/01/31 09:55:58;;;;;;;10.70;7.00;;;2.40;99.90;;;;;;5043115;28;20402;-82
2021/01/31 09:58:31;;;;;;;11.83;7.07;;;2.30;99.90;;;;;;5061634;28;20478;-81
2021/01/31 10:01:09;;;;;;;10.20;7.23;;;2.80;99.90;;;;;;5059794;28;20444;-83
2021/01/31 10:03:35;;;;;;;10.70;6.50;;;3.00;99.90;;;;;;5057454;28;20406;-83
2021/01/31 10:06:10;;;;;;;8.60;5.73;;;2.90;99.90;;;;;;5040732;28;20797;-82
2021/01/31 10:08:41;;;;;;;12.83;6.70;;;2.80;99.90;;;;;;5050127;28;20426;-83
2021/01/31 10:11:25;;;;;;;11.70;6.37;;;3.10;99.90;;;;;;5056098;28;20483;-83
2021/01/31 10:13:51;;;;;;;17.93;8.00;;;4.80;99.90;;;;;;5056978;28;20398;-83
2021/01/31 10:16:22;;;;;;;15.13;7.80;;;6.10;99.90;;;;;;5069765;28;20394;-83
2021/01/31 10:18:48;;;;;;;12.03;7.57;;;6.40;99.90;;;;;;5065519;28;20540;-83
2021/01/31 10:21:25;;;;;;;11.93;8.47;;;7.10;99.90;;;;;;5059866;28;20391;-83
2021/01/31 10:24:04;;;;;;;14.47;9.07;;;6.70;99.90;;;;;;5061446;28;20456;-82
2021/01/31 10:26:30;;;;;;;12.53;9.70;;;7.80;99.90;;;;;;5061591;28;20394;-83
2021/01/31 10:28:59;;;;;;;8.80;7.70;;;8.50;99.90;;;;;;5062038;28;20439;-83
2021/01/31 10:31:30;;;;;;;14.73;8.40;;;8.30;99.90;;;;;;5079101;28;20488;-80
2021/01/31 10:33:57;;;;;;;12.57;7.97;;;10.40;99.90;;;;;;5043121;28;20483;-82
2021/01/31 10:36:29;;;;;;;15.77;7.97;;;8.70;99.90;;;;;;5077509;28;20384;-82
2021/01/31 10:38:59;;;;;;;10.80;8.23;;;8.40;99.90;;;;;;5088956;22;20478;-81
2021/01/31 10:41:26;;;;;;;13.57;8.37;;;9.80;99.90;;;;;;5043049;28;20716;-83
2021/01/31 10:43:58;;;;;;;9.87;8.20;;;10.10;99.90;;;;;;5043398;28;20390;-82
2021/01/31 10:46:24;;;;;;;11.00;8.30;;;8.20;99.90;;;;;;5041835;28;20366;-82
2021/01/31 10:48:50;;;;;;;17.10;9.20;;;9.80;99.90;;;;;;5043343;28;20787;-82
2021/01/31 10:51:16;;;;;;;10.20;9.13;;;11.10;99.90;;;;;;5041519;28;20422;-83
2021/01/31 10:53:41;;;;;;;11.73;9.20;;;9.60;99.90;;;;;;5038719;28;20192;-83
2021/01/31 10:56:07;;;;;;;13.30;8.50;;;8.20;99.90;;;;;;5038697;28;20161;-83
2021/01/31 10:58:33;;;;;;;11.80;8.90;;;7.20;99.90;;;;;;5038574;28;20351;-83
2021/01/31 11:00:59;;;;;;;11.70;7.70;;;9.30;99.90;;;;;;5037652;28;20171;-83
2021/01/31 11:03:27;;;;;;;11.82;9.63;;;10.60;99.90;;;;;;5036087;28;20418;-80
2021/01/31 11:05:57;;;;;;;10.47;8.37;;;11.10;99.90;;;;;;5020798;28;20207;-81
2021/01/31 11:08:24;;;;;;;8.20;6.90;;;11.00;99.90;;;;;;5037776;28;20439;-81
2021/01/31 11:10:50;;;;;;;10.13;6.50;;;9.30;99.90;;;;;;5020491;28;20492;-81
2021/01/31 11:13:17;;;;;;;8.23;7.43;;;7.30;99.90;;;;;;5044581;28;20394;-79
2021/01/31 11:15:43;;;;;;;8.87;7.90;;;9.60;99.90;;;;;;5064893;28;20423;-80
2021/01/31 11:18:08;;;;;;;12.60;7.20;;;9.60;99.90;;;;;;5064797;28;20385;-80
2021/01/31 11:20:34;;;;;;;11.07;7.67;;;6.90;99.90;;;;;;5062859;28;20436;-79
2021/01/31 11:23:00;;;;;;;9.23;7.37;;;6.70;99.90;;;;;;5061103;28;20176;-79
2021/01/31 11:25:26;;;;;;;10.23;7.57;;;7.20;99.90;;;;;;5061017;28;20592;-80
2021/01/31 11:27:52;;;;;;;10.27;7.73;;;6.90;99.90;;;;;;5061726;28;20196;-80
2021/01/31 11:30:18;;;;;;;9.00;7.30;;;7.10;99.90;;;;;;5060649;28;20160;-81
2021/01/31 11:32:44;;;;;;;10.43;8.13;;;7.20;99.90;;;;;;5062182;28;20271;-79
2021/01/31 11:35:10;;;;;;;11.63;7.00;;;7.40;99.90;;;;;;5046268;28;20804;-80
2021/01/31 11:37:36;;;;;;;10.60;6.90;;;6.30;99.90;;;;;;5046746;28;20426;-80
2021/01/31 11:40:05;;;;;;;8.60;7.80;;;6.30;99.90;;;;;;5043363;28;20828;-80
2021/01/31 11:42:50;;;;;;;9.77;7.27;;;6.50;99.90;;;;;;5024390;28;20168;-79
2021/01/31 11:45:18;;;;;;;12.30;7.40;;;4.90;99.90;;;;;;5081047;28;20442;-80
2021/01/31 11:47:44;;;;;;;7.77;7.07;;;5.00;99.90;;;;;;5066958;28;20410;-80
2021/01/31 11:50:12;;;;;;;10.63;7.53;;;4.90;99.90;;;;;;5081682;28;20500;-80
2021/01/31 11:52:38;;;;;;;9.67;6.80;;;5.00;99.90;;;;;;5063281;28;20698;-81
2021/01/31 11:55:05;;;;;;;8.50;6.40;;;5.50;99.90;;;;;;5050038;28;20472;-80
2021/01/31 11:57:31;;;;;;;10.40;7.17;;;5.20;99.90;;;;;;5064970;28;20473;-82
2021/01/31 11:59:57;;;;;;;10.40;7.47;;;4.90;99.90;;;;;;5058824;28;20403;-81
2021/01/31 12:02:23;;;;;;;14.03;8.47;;;5.50;99.90;;;;;;5058243;28;20157;-82
2021/01/31 12:04:49;;;;;;;10.60;6.80;;;5.50;99.90;;;;;;5071030;28;20424;-81
2021/01/31 12:07:18;;;;;;;12.33;8.80;;;5.60;99.90;;;;;;5086251;28;20469;-82
2021/01/31 12:09:43;;;;;;;14.27;7.80;;;6.20;99.90;;;;;;5081137;28;20201;-79
2021/01/31 12:12:09;;;;;;;9.37;6.43;;;7.60;99.90;;;;;;5080960;28;20852;-80
2021/01/31 12:14:35;;;;;;;11.80;8.43;;;7.70;99.90;;;;;;5082500;28;20282;-80
2021/01/31 12:17:01;;;;;;;12.53;8.20;;;9.20;99.90;;;;;;5067991;28;20210;-80
2021/01/31 12:19:29;;;;;;;14.60;10.40;;;9.80;99.90;;;;;;5061373;28;20723;-80
2021/01/31 12:21:55;;;;;;;13.90;7.57;;;9.10;99.90;;;;;;5062006;28;20413;-79
2021/01/31 12:24:21;;;;;;;10.07;7.87;;;10.60;99.90;;;;;;5039982;28;20196;-81
2021/01/31 12:26:50;;;;;;;10.23;8.70;;;9.80;99.90;;;;;;5043169;28;20609;-79
2021/01/31 12:29:17;;;;;;;13.23;9.00;;;8.30;99.90;;;;;;5043390;28;20295;-81
2021/01/31 12:31:44;;;;;;;9.83;7.30;;;7.20;99.90;;;;;;5044792;28;20409;-81
2021/01/31 12:34:10;;;;;;;11.83;7.87;;;7.10;99.90;;;;;;5047936;28;20397;-81
2021/01/31 12:36:36;;;;;;;8.37;7.00;;;6.20;99.90;;;;;;5062549;28;20373;-80
2021/01/31 12:39:03;;;;;;;8.03;6.73;;;5.60;99.90;;;;;;5062118;28;20220;-79
2021/01/31 12:41:29;;;;;;;9.30;7.70;;;5.20;99.90;;;;;;5060683;28;20448;-79
2021/01/31 12:43:55;;;;;;;10.73;7.20;;;4.80;99.90;;;;;;5057533;28;20819;-78
2021/01/31 12:46:21;;;;;;;9.87;7.40;;;5.40;99.90;;;;;;5023368;28;20168;-79
2021/01/31 12:48:47;;;;;;;10.63;6.93;;;5.40;99.90;;;;;;5021922;28;20264;-80
2021/01/31 12:51:13;;;;;;;8.73;7.83;;;5.50;99.90;;;;;;5039498;28;20441;-80
2021/01/31 12:53:38;;;;;;;7.53;6.23;;;6.00;99.90;;;;;;5041221;28;20165;-80
2021/01/31 12:56:04;;;;;;;11.30;6.27;;;5.70;99.90;;;;;;5060730;28;20171;-81
2021/01/31 12:58:30;;;;;;;11.47;7.33;;;6.20;99.90;;;;;;5061273;28;20593;-79
2021/01/31 13:00:57;;;;;;;9.43;7.50;;;6.50;99.90;;;;;;5061726;28;20168;-79
2021/01/31 13:03:23;;;;;;;10.00;6.77;;;6.90;99.90;;;;;;5062591;28;20200;-79
2021/01/31 13:05:49;;;;;;;11.17;8.20;;;6.20;99.90;;;;;;5044669;28;20419;-79
2021/01/31 13:08:15;;;;;;;10.13;6.80;;;6.40;99.90;;;;;;5041535;28;20730;-80
2021/01/31 13:10:42;;;;;;;9.10;8.07;;;6.30;99.90;;;;;;5043292;28;20558;-79
2021/01/31 13:13:08;;;;;;;7.77;6.83;;;6.40;99.90;;;;;;5041971;28;20515;-80
2021/01/31 13:15:34;;;;;;;9.87;6.97;;;6.70;99.90;;;;;;5056539;28;20476;-81
2021/01/31 13:18:00;;;;;;;9.17;8.27;;;7.00;99.90;;;;;;5062943;28;20385;-81
2021/01/31 13:20:28;;;;;;;10.33;6.93;;;5.90;99.90;;;;;;5063757;28;20164;-81
2021/01/31 13:22:54;;;;;;;8.77;6.67;;;6.10;99.90;;;;;;5064719;28;20985;-79